sensor_id;sensor_type;location;lat;lon;timestamp;P1;durP1;ratioP1;P2;durP2;ratioP2
78296;SDS011;67555;47.660;19.622;2023-07-02T00:01:45;1.40;;;1.30;;
78296;SDS011;67555;47.660;19.622;2023-07-02T00:04:11;1.40;;;1.30;;
78296;SDS011;67555;47.660;19.622;2023-07-02T00:06:41;2.03;;;1.30;;
78296;SDS011;67555;47.660;19.622;2023-07-02T00:09:13;1.45;;;1.35;;
78296;SDS011;67555;47.660;19.622;2023-07-02T00:11:41;1.20;;;1.20;;
78296;SDS011;67555;47.660;19.622;2023-07-02T00:14:08;1.08;;;1.08;;
78296;SDS011;67555;47.660;19.622;2023-07-02T00:16:37;1.10;;;1.10;;
78296;SDS011;67555;47.660;19.622;2023-07-02T00:19:04;1.40;;;1.30;;
78296;SDS011;67555;47.660;19.622;2023-07-02T00:21:30;1.95;;;1.20;;
78296;SDS011;67555;47.660;19.622;2023-07-02T00:23:58;1.17;;;1.15;;
78296;SDS011;67555;47.660;19.622;2023-07-02T00:26:26;1.40;;;1.30;;
78296;SDS011;67555;47.660;19.622;2023-07-02T00:28:55;1.15;;;1.15;;
78296;SDS011;67555;47.660;19.622;2023-07-02T00:31:22;1.38;;;1.27;;
78296;SDS011;67555;47.660;19.622;2023-07-02T00:33:48;1.20;;;1.20;;
78296;SDS011;67555;47.660;19.622;2023-07-02T00:36:15;1.50;;;1.40;;
78296;SDS011;67555;47.660;19.622;2023-07-02T00:38:41;1.40;;;1.30;;
78296;SDS011;67555;47.660;19.622;2023-07-02T00:41:09;1.30;;;1.20;;
78296;SDS011;67555;47.660;19.622;2023-07-02T00:43:35;1.50;;;1.40;;
78296;SDS011;67555;47.660;19.622;2023-07-02T00:46:08;1.40;;;1.30;;
78296;SDS011;67555;47.660;19.622;2023-07-02T00:48:38;1.40;;;1.30;;
78296;SDS011;67555;47.660;19.622;2023-07-02T00:51:04;1.48;;;1.38;;
78296;SDS011;67555;47.660;19.622;2023-07-02T00:53:30;1.40;;;1.30;;
78296;SDS011;67555;47.660;19.622;2023-07-02T00:55:57;1.40;;;1.30;;
78296;SDS011;67555;47.660;19.622;2023-07-02T00:58:23;1.33;;;1.23;;
78296;SDS011;67555;47.660;19.622;2023-07-02T01:00:49;1.27;;;1.23;;
78296;SDS011;67555;47.660;19.622;2023-07-02T01:03:15;1.40;;;1.30;;
78296;SDS011;67555;47.660;19.622;2023-07-02T01:05:40;1.30;;;1.20;;
78296;SDS011;67555;47.660;19.622;2023-07-02T01:08:06;2.15;;;1.33;;
78296;SDS011;67555;47.660;19.622;2023-07-02T01:10:33;1.50;;;1.40;;
78296;SDS011;67555;47.660;19.622;2023-07-02T01:13:00;1.17;;;1.17;;
78296;SDS011;67555;47.660;19.622;2023-07-02T01:15:31;1.13;;;1.13;;
78296;SDS011;67555;47.660;19.622;2023-07-02T01:17:57;1.40;;;1.30;;
78296;SDS011;67555;47.660;19.622;2023-07-02T01:20:24;1.30;;;1.20;;
78296;SDS011;67555;47.660;19.622;2023-07-02T01:22:52;1.42;;;1.33;;
78296;SDS011;67555;47.660;19.622;2023-07-02T01:25:18;1.65;;;1.30;;
78296;SDS011;67555;47.660;19.622;2023-07-02T01:27:44;1.48;;;1.13;;
78296;SDS011;67555;47.660;19.622;2023-07-02T01:30:10;1.20;;;1.10;;
78296;SDS011;67555;47.660;19.622;2023-07-02T01:32:36;1.50;;;1.40;;
78296;SDS011;67555;47.660;19.622;2023-07-02T01:35:03;1.33;;;1.25;;
78296;SDS011;67555;47.660;19.622;2023-07-02T01:37:29;1.40;;;1.30;;
78296;SDS011;67555;47.660;19.622;2023-07-02T01:40:02;1.50;;;1.40;;
78296;SDS011;67555;47.660;19.622;2023-07-02T01:42:31;1.40;;;1.30;;
78296;SDS011;67555;47.660;19.622;2023-07-02T01:44:58;1.17;;;1.10;;
78296;SDS011;67555;47.660;19.622;2023-07-02T01:47:24;1.42;;;1.33;;
78296;SDS011;67555;47.660;19.622;2023-07-02T01:49:50;1.40;;;1.30;;
78296;SDS011;67555;47.660;19.622;2023-07-02T01:52:16;1.35;;;1.25;;
78296;SDS011;67555;47.660;19.622;2023-07-02T01:54:42;1.63;;;1.52;;
78296;SDS011;67555;47.660;19.622;2023-07-02T01:57:09;1.80;;;1.60;;
78296;SDS011;67555;47.660;19.622;2023-07-02T01:59:35;1.50;;;1.40;;
78296;SDS011;67555;47.660;19.622;2023-07-02T02:02:01;1.30;;;1.20;;
78296;SDS011;67555;47.660;19.622;2023-07-02T02:04:26;1.70;;;1.60;;
78296;SDS011;67555;47.660;19.622;2023-07-02T02:06:52;1.60;;;1.50;;
78296;SDS011;67555;47.660;19.622;2023-07-02T02:09:18;1.45;;;1.35;;
78296;SDS011;67555;47.660;19.622;2023-07-02T02:11:45;1.60;;;1.50;;
78296;SDS011;67555;47.660;19.622;2023-07-02T02:14:13;1.50;;;1.40;;
78296;SDS011;67555;47.660;19.622;2023-07-02T02:16:39;1.55;;;1.45;;
78296;SDS011;67555;47.660;19.622;2023-07-02T02:19:05;1.70;;;1.60;;
78296;SDS011;67555;47.660;19.622;2023-07-02T02:21:31;1.52;;;1.42;;
78296;SDS011;67555;47.660;19.622;2023-07-02T02:23:57;1.60;;;1.50;;
78296;SDS011;67555;47.660;19.622;2023-07-02T02:26:23;2.03;;;1.80;;
78296;SDS011;67555;47.660;19.622;2023-07-02T02:28:50;1.50;;;1.40;;
78296;SDS011;67555;47.660;19.622;2023-07-02T02:31:16;1.63;;;1.52;;
78296;SDS011;67555;47.660;19.622;2023-07-02T02:33:42;1.50;;;1.40;;
78296;SDS011;67555;47.660;19.622;2023-07-02T02:36:08;1.60;;;1.50;;
78296;SDS011;67555;47.660;19.622;2023-07-02T02:38:34;1.60;;;1.50;;
78296;SDS011;67555;47.660;19.622;2023-07-02T02:41:02;3.60;;;1.40;;
78296;SDS011;67555;47.660;19.622;2023-07-02T02:43:28;1.40;;;1.30;;
78296;SDS011;67555;47.660;19.622;2023-07-02T02:45:53;1.95;;;1.73;;
78296;SDS011;67555;47.660;19.622;2023-07-02T02:48:19;1.60;;;1.50;;
78296;SDS011;67555;47.660;19.622;2023-07-02T02:50:47;1.58;;;1.45;;
78296;SDS011;67555;47.660;19.622;2023-07-02T02:53:13;1.42;;;1.33;;
78296;SDS011;67555;47.660;19.622;2023-07-02T02:55:38;1.90;;;1.60;;
78296;SDS011;67555;47.660;19.622;2023-07-02T02:58:04;1.50;;;1.40;;
78296;SDS011;67555;47.660;19.622;2023-07-02T03:00:30;1.90;;;1.70;;
78296;SDS011;67555;47.660;19.622;2023-07-02T03:02:55;1.73;;;1.60;;
78296;SDS011;67555;47.660;19.622;2023-07-02T03:05:21;1.83;;;1.52;;
78296;SDS011;67555;47.660;19.622;2023-07-02T03:07:47;1.48;;;1.38;;
78296;SDS011;67555;47.660;19.622;2023-07-02T03:10:14;2.00;;;1.80;;
78296;SDS011;67555;47.660;19.622;2023-07-02T03:12:40;1.40;;;1.30;;
78296;SDS011;67555;47.660;19.622;2023-07-02T03:15:05;1.60;;;1.50;;
78296;SDS011;67555;47.660;19.622;2023-07-02T03:17:32;1.70;;;1.60;;
78296;SDS011;67555;47.660;19.622;2023-07-02T03:19:57;1.60;;;1.50;;
78296;SDS011;67555;47.660;19.622;2023-07-02T03:22:23;1.73;;;1.60;;
78296;SDS011;67555;47.660;19.622;2023-07-02T03:24:49;1.80;;;1.67;;
78296;SDS011;67555;47.660;19.622;2023-07-02T03:27:15;1.65;;;1.55;;
78296;SDS011;67555;47.660;19.622;2023-07-02T03:29:40;1.75;;;1.65;;
78296;SDS011;67555;47.660;19.622;2023-07-02T03:32:06;1.77;;;1.67;;
78296;SDS011;67555;47.660;19.622;2023-07-02T03:34:32;1.95;;;1.75;;
78296;SDS011;67555;47.660;19.622;2023-07-02T03:36:58;2.00;;;1.80;;
78296;SDS011;67555;47.660;19.622;2023-07-02T03:39:24;1.70;;;1.60;;
78296;SDS011;67555;47.660;19.622;2023-07-02T03:41:49;1.83;;;1.60;;
78296;SDS011;67555;47.660;19.622;2023-07-02T03:44:15;2.10;;;1.90;;
78296;SDS011;67555;47.660;19.622;2023-07-02T03:46:41;1.85;;;1.75;;
78296;SDS011;67555;47.660;19.622;2023-07-02T03:49:06;2.00;;;1.80;;
78296;SDS011;67555;47.660;19.622;2023-07-02T03:51:32;1.98;;;1.80;;
78296;SDS011;67555;47.660;19.622;2023-07-02T03:53:58;1.55;;;1.45;;
78296;SDS011;67555;47.660;19.622;2023-07-02T03:56:24;2.00;;;1.80;;
78296;SDS011;67555;47.660;19.622;2023-07-02T03:58:50;2.10;;;1.90;;
78296;SDS011;67555;47.660;19.622;2023-07-02T04:01:17;2.25;;;2.05;;
78296;SDS011;67555;47.660;19.622;2023-07-02T04:03:49;1.92;;;1.65;;
78296;SDS011;67555;47.660;19.622;2023-07-02T04:06:16;2.10;;;1.90;;
78296;SDS011;67555;47.660;19.622;2023-07-02T04:08:42;2.22;;;1.52;;
78296;SDS011;67555;47.660;19.622;2023-07-02T04:11:08;1.80;;;1.70;;
78296;SDS011;67555;47.660;19.622;2023-07-02T04:13:34;1.92;;;1.80;;
78296;SDS011;67555;47.660;19.622;2023-07-02T04:16:02;2.38;;;2.00;;
78296;SDS011;67555;47.660;19.622;2023-07-02T04:18:28;2.22;;;1.90;;
78296;SDS011;67555;47.660;19.622;2023-07-02T04:20:54;2.10;;;1.90;;
78296;SDS011;67555;47.660;19.622;2023-07-02T04:23:20;1.83;;;1.73;;
78296;SDS011;67555;47.660;19.622;2023-07-02T04:25:46;2.30;;;2.10;;
78296;SDS011;67555;47.660;19.622;2023-07-02T04:28:11;2.15;;;1.83;;
78296;SDS011;67555;47.660;19.622;2023-07-02T04:30:37;2.20;;;2.00;;
78296;SDS011;67555;47.660;19.622;2023-07-02T04:33:03;2.05;;;1.88;;
78296;SDS011;67555;47.660;19.622;2023-07-02T04:35:30;2.33;;;2.13;;
78296;SDS011;67555;47.660;19.622;2023-07-02T04:37:56;1.98;;;1.77;;
78296;SDS011;67555;47.660;19.622;2023-07-02T04:40:22;2.00;;;1.80;;
78296;SDS011;67555;47.660;19.622;2023-07-02T04:42:48;1.90;;;1.80;;
78296;SDS011;67555;47.660;19.622;2023-07-02T04:45:14;2.63;;;1.80;;
78296;SDS011;67555;47.660;19.622;2023-07-02T04:47:44;2.08;;;1.88;;
78296;SDS011;67555;47.660;19.622;2023-07-02T04:50:10;1.70;;;1.60;;
78296;SDS011;67555;47.660;19.622;2023-07-02T04:52:37;2.00;;;1.80;;
78296;SDS011;67555;47.660;19.622;2023-07-02T04:55:03;1.92;;;1.80;;
78296;SDS011;67555;47.660;19.622;2023-07-02T04:57:30;2.22;;;1.98;;
78296;SDS011;67555;47.660;19.622;2023-07-02T04:59:56;1.88;;;1.77;;
78296;SDS011;67555;47.660;19.622;2023-07-02T05:02:22;2.30;;;2.10;;
78296;SDS011;67555;47.660;19.622;2023-07-02T05:04:47;1.92;;;1.83;;
78296;SDS011;67555;47.660;19.622;2023-07-02T05:07:13;1.92;;;1.83;;
78296;SDS011;67555;47.660;19.622;2023-07-02T05:09:40;2.03;;;1.90;;
78296;SDS011;67555;47.660;19.622;2023-07-02T05:12:06;2.00;;;1.80;;
78296;SDS011;67555;47.660;19.622;2023-07-02T05:14:32;2.05;;;1.95;;
78296;SDS011;67555;47.660;19.622;2023-07-02T05:16:58;2.55;;;2.22;;
78296;SDS011;67555;47.660;19.622;2023-07-02T05:19:23;2.22;;;2.03;;
78296;SDS011;67555;47.660;19.622;2023-07-02T05:21:49;2.10;;;1.90;;
78296;SDS011;67555;47.660;19.622;2023-07-02T05:24:15;2.42;;;2.00;;
78296;SDS011;67555;47.660;19.622;2023-07-02T05:26:40;2.10;;;1.90;;
78296;SDS011;67555;47.660;19.622;2023-07-02T05:29:06;2.22;;;2.03;;
78296;SDS011;67555;47.660;19.622;2023-07-02T05:31:32;2.20;;;1.90;;
78296;SDS011;67555;47.660;19.622;2023-07-02T05:33:59;2.40;;;2.20;;
78296;SDS011;67555;47.660;19.622;2023-07-02T05:36:25;3.50;;;2.25;;
78296;SDS011;67555;47.660;19.622;2023-07-02T05:38:51;2.20;;;1.92;;
78296;SDS011;67555;47.660;19.622;2023-07-02T05:41:22;2.20;;;1.85;;
78296;SDS011;67555;47.660;19.622;2023-07-02T05:43:49;1.90;;;1.80;;
78296;SDS011;67555;47.660;19.622;2023-07-02T05:46:14;2.20;;;2.00;;
78296;SDS011;67555;47.660;19.622;2023-07-02T05:48:41;1.80;;;1.70;;
78296;SDS011;67555;47.660;19.622;2023-07-02T05:51:07;2.30;;;2.10;;
78296;SDS011;67555;47.660;19.622;2023-07-02T05:53:33;2.20;;;2.00;;
78296;SDS011;67555;47.660;19.622;2023-07-02T05:55:59;2.25;;;2.00;;
78296;SDS011;67555;47.660;19.622;2023-07-02T05:58:25;2.20;;;2.00;;
78296;SDS011;67555;47.660;19.622;2023-07-02T06:00:50;2.10;;;1.90;;
78296;SDS011;67555;47.660;19.622;2023-07-02T06:03:17;2.22;;;2.03;;
78296;SDS011;67555;47.660;19.622;2023-07-02T06:05:48;2.10;;;1.90;;
78296;SDS011;67555;47.660;19.622;2023-07-02T06:08:15;2.17;;;1.98;;
78296;SDS011;67555;47.660;19.622;2023-07-02T06:10:42;2.10;;;1.90;;
78296;SDS011;67555;47.660;19.622;2023-07-02T06:13:09;2.88;;;2.05;;
78296;SDS011;67555;47.660;19.622;2023-07-02T06:15:36;1.92;;;1.73;;
78296;SDS011;67555;47.660;19.622;2023-07-02T06:18:02;2.00;;;1.80;;
78296;SDS011;67555;47.660;19.622;2023-07-02T06:20:27;1.60;;;1.50;;
78296;SDS011;67555;47.660;19.622;2023-07-02T06:22:53;1.75;;;1.65;;
78296;SDS011;67555;47.660;19.622;2023-07-02T06:25:19;1.70;;;1.60;;
78296;SDS011;67555;47.660;19.622;2023-07-02T06:27:45;1.90;;;1.70;;
78296;SDS011;67555;47.660;19.622;2023-07-02T06:30:11;1.80;;;1.70;;
78296;SDS011;67555;47.660;19.622;2023-07-02T06:32:37;2.38;;;1.58;;
78296;SDS011;67555;47.660;19.622;2023-07-02T06:35:02;1.67;;;1.58;;
78296;SDS011;67555;47.660;19.622;2023-07-02T06:39:57;1.70;;;1.60;;
78296;SDS011;67555;47.660;19.622;2023-07-02T06:42:23;1.40;;;1.30;;
78296;SDS011;67555;47.660;19.622;2023-07-02T06:44:49;1.73;;;1.63;;
78296;SDS011;67555;47.660;19.622;2023-07-02T06:47:15;2.00;;;1.80;;
78296;SDS011;67555;47.660;19.622;2023-07-02T06:49:42;1.92;;;1.80;;
78296;SDS011;67555;47.660;19.622;2023-07-02T06:52:07;1.92;;;1.60;;
78296;SDS011;67555;47.660;19.622;2023-07-02T06:54:34;2.20;;;1.70;;
78296;SDS011;67555;47.660;19.622;2023-07-02T06:57:00;1.60;;;1.50;;
78296;SDS011;67555;47.660;19.622;2023-07-02T06:59:26;1.73;;;1.60;;
78296;SDS011;67555;47.660;19.622;2023-07-02T07:01:52;1.85;;;1.60;;
78296;SDS011;67555;47.660;19.622;2023-07-02T07:04:18;1.77;;;1.60;;
78296;SDS011;67555;47.660;19.622;2023-07-02T07:06:44;1.42;;;1.33;;
78296;SDS011;67555;47.660;19.622;2023-07-02T07:09:11;1.50;;;1.40;;
78296;SDS011;67555;47.660;19.622;2023-07-02T07:11:37;1.38;;;1.27;;
78296;SDS011;67555;47.660;19.622;2023-07-02T07:14:04;1.63;;;1.50;;
78296;SDS011;67555;47.660;19.622;2023-07-02T07:16:29;1.38;;;1.27;;
78296;SDS011;67555;47.660;19.622;2023-07-02T07:18:55;1.58;;;1.48;;
78296;SDS011;67555;47.660;19.622;2023-07-02T07:21:21;1.98;;;1.70;;
78296;SDS011;67555;47.660;19.622;2023-07-02T07:23:48;1.70;;;1.60;;
78296;SDS011;67555;47.660;19.622;2023-07-02T07:26:13;1.52;;;1.42;;
78296;SDS011;67555;47.660;19.622;2023-07-02T07:28:39;1.60;;;1.50;;
78296;SDS011;67555;47.660;19.622;2023-07-02T07:31:05;1.50;;;1.40;;
78296;SDS011;67555;47.660;19.622;2023-07-02T07:33:30;1.77;;;1.67;;
78296;SDS011;67555;47.660;19.622;2023-07-02T07:35:57;1.52;;;1.42;;
78296;SDS011;67555;47.660;19.622;2023-07-02T07:38:23;1.92;;;1.42;;
78296;SDS011;67555;47.660;19.622;2023-07-02T07:40:48;1.50;;;1.40;;
78296;SDS011;67555;47.660;19.622;2023-07-02T07:43:14;1.40;;;1.30;;
78296;SDS011;67555;47.660;19.622;2023-07-02T07:45:40;1.50;;;1.40;;
78296;SDS011;67555;47.660;19.622;2023-07-02T07:48:07;1.40;;;1.30;;
78296;SDS011;67555;47.660;19.622;2023-07-02T07:50:32;1.73;;;1.60;;
78296;SDS011;67555;47.660;19.622;2023-07-02T07:52:58;1.55;;;1.45;;
78296;SDS011;67555;47.660;19.622;2023-07-02T07:55:24;1.50;;;1.40;;
78296;SDS011;67555;47.660;19.622;2023-07-02T07:57:50;1.40;;;1.30;;
78296;SDS011;67555;47.660;19.622;2023-07-02T08:00:16;1.20;;;1.20;;
78296;SDS011;67555;47.660;19.622;2023-07-02T08:02:45;1.70;;;1.30;;
78296;SDS011;67555;47.660;19.622;2023-07-02T08:05:12;1.38;;;1.27;;
78296;SDS011;67555;47.660;19.622;2023-07-02T08:07:38;1.60;;;1.48;;
78296;SDS011;67555;47.660;19.622;2023-07-02T08:10:08;1.70;;;1.20;;
78296;SDS011;67555;47.660;19.622;2023-07-02T08:12:34;1.15;;;1.08;;
78296;SDS011;67555;47.660;19.622;2023-07-02T08:15:00;1.50;;;1.40;;
78296;SDS011;67555;47.660;19.622;2023-07-02T08:17:25;1.13;;;1.13;;
78296;SDS011;67555;47.660;19.622;2023-07-02T08:19:51;1.00;;;1.00;;
78296;SDS011;67555;47.660;19.622;2023-07-02T08:22:17;1.23;;;1.13;;
78296;SDS011;67555;47.660;19.622;2023-07-02T08:24:43;1.30;;;1.20;;
78296;SDS011;67555;47.660;19.622;2023-07-02T08:27:09;1.23;;;1.13;;
78296;SDS011;67555;47.660;19.622;2023-07-02T08:29:35;1.15;;;1.05;;
78296;SDS011;67555;47.660;19.622;2023-07-02T08:32:01;1.60;;;1.23;;
78296;SDS011;67555;47.660;19.622;2023-07-02T08:34:28;1.10;;;1.05;;
78296;SDS011;67555;47.660;19.622;2023-07-02T08:36:54;0.98;;;0.98;;
78296;SDS011;67555;47.660;19.622;2023-07-02T08:39:19;1.35;;;1.17;;
78296;SDS011;67555;47.660;19.622;2023-07-02T08:41:45;0.82;;;0.82;;
78296;SDS011;67555;47.660;19.622;2023-07-02T08:44:12;0.90;;;0.90;;
78296;SDS011;67555;47.660;19.622;2023-07-02T08:46:39;0.60;;;0.60;;
78296;SDS011;67555;47.660;19.622;2023-07-02T08:49:06;1.25;;;0.93;;
78296;SDS011;67555;47.660;19.622;2023-07-02T08:51:32;1.40;;;1.30;;
78296;SDS011;67555;47.660;19.622;2023-07-02T08:53:58;0.82;;;0.82;;
78296;SDS011;67555;47.660;19.622;2023-07-02T08:56:24;1.00;;;0.95;;
78296;SDS011;67555;47.660;19.622;2023-07-02T08:58:51;0.73;;;0.73;;
78296;SDS011;67555;47.660;19.622;2023-07-02T09:01:17;0.65;;;0.65;;
78296;SDS011;67555;47.660;19.622;2023-07-02T09:03:42;1.35;;;0.82;;
78296;SDS011;67555;47.660;19.622;2023-07-02T09:06:09;0.85;;;0.85;;
78296;SDS011;67555;47.660;19.622;2023-07-02T09:08:35;0.80;;;0.80;;
78296;SDS011;67555;47.660;19.622;2023-07-02T09:13:47;0.90;;;0.90;;
78296;SDS011;67555;47.660;19.622;2023-07-02T09:21:41;1.00;;;0.90;;
78296;SDS011;67555;47.660;19.622;2023-07-02T09:24:19;0.90;;;0.90;;
78296;SDS011;67555;47.660;19.622;2023-07-02T09:31:50;0.80;;;0.80;;
78296;SDS011;67555;47.660;19.622;2023-07-02T09:34:16;0.77;;;0.77;;
78296;SDS011;67555;47.660;19.622;2023-07-02T09:36:42;1.15;;;1.05;;
78296;SDS011;67555;47.660;19.622;2023-07-02T09:39:12;1.20;;;1.00;;
78296;SDS011;67555;47.660;19.622;2023-07-02T09:41:41;1.85;;;1.00;;
78296;SDS011;67555;47.660;19.622;2023-07-02T09:44:09;1.30;;;1.15;;
78296;SDS011;67555;47.660;19.622;2023-07-02T09:46:37;1.65;;;1.15;;
78296;SDS011;67555;47.660;19.622;2023-07-02T09:49:07;1.23;;;1.13;;
78296;SDS011;67555;47.660;19.622;2023-07-02T09:51:39;0.70;;;0.70;;
78296;SDS011;67555;47.660;19.622;2023-07-02T09:54:05;0.57;;;0.57;;
78296;SDS011;67555;47.660;19.622;2023-07-02T09:56:31;3.80;;;1.20;;
78296;SDS011;67555;47.660;19.622;2023-07-02T09:58:57;1.58;;;0.75;;
78296;SDS011;67555;47.660;19.622;2023-07-02T10:01:23;0.93;;;0.85;;
78296;SDS011;67555;47.660;19.622;2023-07-02T10:03:49;0.80;;;0.80;;
78296;SDS011;67555;47.660;19.622;2023-07-02T10:06:14;0.80;;;0.80;;
78296;SDS011;67555;47.660;19.622;2023-07-02T10:08:40;0.90;;;0.85;;
78296;SDS011;67555;47.660;19.622;2023-07-02T10:11:16;0.80;;;0.80;;
78296;SDS011;67555;47.660;19.622;2023-07-02T10:13:42;0.93;;;0.90;;
78296;SDS011;67555;47.660;19.622;2023-07-02T10:16:08;1.08;;;1.00;;
78296;SDS011;67555;47.660;19.622;2023-07-02T10:18:34;0.85;;;0.85;;
78296;SDS011;67555;47.660;19.622;2023-07-02T10:20:59;0.77;;;0.77;;
78296;SDS011;67555;47.660;19.622;2023-07-02T10:23:35;0.88;;;0.88;;
78296;SDS011;67555;47.660;19.622;2023-07-02T10:26:13;0.82;;;0.82;;
78296;SDS011;67555;47.660;19.622;2023-07-02T10:28:55;0.55;;;0.55;;
78296;SDS011;67555;47.660;19.622;2023-07-02T10:31:24;0.88;;;0.82;;
78296;SDS011;67555;47.660;19.622;2023-07-02T10:33:50;1.10;;;1.10;;
78296;SDS011;67555;47.660;19.622;2023-07-02T10:36:22;1.10;;;1.10;;
78296;SDS011;67555;47.660;19.622;2023-07-02T10:38:49;1.45;;;0.85;;
78296;SDS011;67555;47.660;19.622;2023-07-02T10:41:28;2.45;;;0.80;;
78296;SDS011;67555;47.660;19.622;2023-07-02T10:44:04;0.93;;;0.93;;
78296;SDS011;67555;47.660;19.622;2023-07-02T10:46:31;1.35;;;1.25;;
78296;SDS011;67555;47.660;19.622;2023-07-02T10:48:57;0.60;;;0.60;;
78296;SDS011;67555;47.660;19.622;2023-07-02T10:51:23;0.70;;;0.70;;
78296;SDS011;67555;47.660;19.622;2023-07-02T10:54:01;0.90;;;0.90;;
78296;SDS011;67555;47.660;19.622;2023-07-02T10:56:29;0.65;;;0.65;;
78296;SDS011;67555;47.660;19.622;2023-07-02T10:58:56;0.55;;;0.55;;
78296;SDS011;67555;47.660;19.622;2023-07-02T11:01:29;0.93;;;0.93;;
78296;SDS011;67555;47.660;19.622;2023-07-02T11:03:59;1.08;;;0.98;;
78296;SDS011;67555;47.660;19.622;2023-07-02T11:06:26;0.90;;;0.90;;
78296;SDS011;67555;47.660;19.622;2023-07-02T11:08:52;0.70;;;0.70;;
78296;SDS011;67555;47.660;19.622;2023-07-02T11:11:20;1.40;;;1.10;;
78296;SDS011;67555;47.660;19.622;2023-07-02T11:13:46;1.13;;;1.02;;
78296;SDS011;67555;47.660;19.622;2023-07-02T11:16:17;0.85;;;0.75;;
78296;SDS011;67555;47.660;19.622;2023-07-02T11:18:44;0.82;;;0.82;;
78296;SDS011;67555;47.660;19.622;2023-07-02T11:21:10;0.82;;;0.82;;
78296;SDS011;67555;47.660;19.622;2023-07-02T11:23:36;0.82;;;0.82;;
78296;SDS011;67555;47.660;19.622;2023-07-02T11:26:02;1.02;;;0.95;;
78296;SDS011;67555;47.660;19.622;2023-07-02T11:28:30;0.65;;;0.65;;
78296;SDS011;67555;47.660;19.622;2023-07-02T11:30:57;1.25;;;1.25;;
78296;SDS011;67555;47.660;19.622;2023-07-02T11:36:01;0.73;;;0.73;;
78296;SDS011;67555;47.660;19.622;2023-07-02T11:38:28;0.70;;;0.70;;
78296;SDS011;67555;47.660;19.622;2023-07-02T11:40:53;0.70;;;0.70;;
78296;SDS011;67555;47.660;19.622;2023-07-02T11:43:19;0.85;;;0.85;;
78296;SDS011;67555;47.660;19.622;2023-07-02T11:45:45;0.80;;;0.80;;
78296;SDS011;67555;47.660;19.622;2023-07-02T11:48:11;0.63;;;0.50;;
78296;SDS011;67555;47.660;19.622;2023-07-02T11:50:37;0.70;;;0.70;;
78296;SDS011;67555;47.660;19.622;2023-07-02T11:53:03;0.60;;;0.60;;
78296;SDS011;67555;47.660;19.622;2023-07-02T11:55:29;0.70;;;0.70;;
78296;SDS011;67555;47.660;19.622;2023-07-02T11:57:55;0.75;;;0.75;;
78296;SDS011;67555;47.660;19.622;2023-07-02T12:00:20;1.23;;;0.80;;
78296;SDS011;67555;47.660;19.622;2023-07-02T12:02:46;0.70;;;0.70;;
78296;SDS011;67555;47.660;19.622;2023-07-02T12:05:12;0.65;;;0.65;;
78296;SDS011;67555;47.660;19.622;2023-07-02T12:07:37;0.55;;;0.55;;
78296;SDS011;67555;47.660;19.622;2023-07-02T12:10:03;0.82;;;0.82;;
78296;SDS011;67555;47.660;19.622;2023-07-02T12:12:30;1.73;;;0.80;;
78296;SDS011;67555;47.660;19.622;2023-07-02T12:14:55;0.70;;;0.70;;
78296;SDS011;67555;47.660;19.622;2023-07-02T12:17:21;0.70;;;0.70;;
78296;SDS011;67555;47.660;19.622;2023-07-02T12:19:48;0.60;;;0.60;;
78296;SDS011;67555;47.660;19.622;2023-07-02T12:22:14;0.70;;;0.70;;
78296;SDS011;67555;47.660;19.622;2023-07-02T12:24:42;0.60;;;0.60;;
78296;SDS011;67555;47.660;19.622;2023-07-02T12:27:08;0.70;;;0.70;;
78296;SDS011;67555;47.660;19.622;2023-07-02T12:29:35;0.52;;;0.52;;
78296;SDS011;67555;47.660;19.622;2023-07-02T12:32:01;1.02;;;0.75;;
78296;SDS011;67555;47.660;19.622;2023-07-02T12:34:27;0.70;;;0.70;;
78296;SDS011;67555;47.660;19.622;2023-07-02T12:36:54;0.73;;;0.70;;
78296;SDS011;67555;47.660;19.622;2023-07-02T12:39:20;0.73;;;0.73;;
78296;SDS011;67555;47.660;19.622;2023-07-02T12:41:45;0.65;;;0.65;;
78296;SDS011;67555;47.660;19.622;2023-07-02T12:44:11;0.77;;;0.77;;
78296;SDS011;67555;47.660;19.622;2023-07-02T12:46:40;0.45;;;0.45;;
78296;SDS011;67555;47.660;19.622;2023-07-02T12:49:06;1.30;;;0.80;;
78296;SDS011;67555;47.660;19.622;2023-07-02T12:51:32;0.50;;;0.50;;
78296;SDS011;67555;47.660;19.622;2023-07-02T12:53:57;0.57;;;0.57;;
78296;SDS011;67555;47.660;19.622;2023-07-02T12:56:23;0.50;;;0.50;;
78296;SDS011;67555;47.660;19.622;2023-07-02T12:58:49;0.50;;;0.50;;
78296;SDS011;67555;47.660;19.622;2023-07-02T13:01:16;0.70;;;0.70;;
78296;SDS011;67555;47.660;19.622;2023-07-02T13:03:46;0.60;;;0.60;;
78296;SDS011;67555;47.660;19.622;2023-07-02T13:06:16;0.98;;;0.52;;
78296;SDS011;67555;47.660;19.622;2023-07-02T13:08:42;0.20;;;0.20;;
78296;SDS011;67555;47.660;19.622;2023-07-02T13:11:08;0.60;;;0.60;;
78296;SDS011;67555;47.660;19.622;2023-07-02T13:13:34;0.50;;;0.50;;
78296;SDS011;67555;47.660;19.622;2023-07-02T13:16:04;0.60;;;0.60;;
78296;SDS011;67555;47.660;19.622;2023-07-02T13:18:30;0.50;;;0.50;;
78296;SDS011;67555;47.660;19.622;2023-07-02T13:20:56;0.50;;;0.50;;
78296;SDS011;67555;47.660;19.622;2023-07-02T13:23:23;0.35;;;0.35;;
78296;SDS011;67555;47.660;19.622;2023-07-02T13:25:49;0.60;;;0.60;;
78296;SDS011;67555;47.660;19.622;2023-07-02T13:28:16;0.28;;;0.28;;
78296;SDS011;67555;47.660;19.622;2023-07-02T13:30:46;0.50;;;0.50;;
78296;SDS011;67555;47.660;19.622;2023-07-02T13:33:12;0.55;;;0.55;;
78296;SDS011;67555;47.660;19.622;2023-07-02T13:35:39;0.43;;;0.43;;
78296;SDS011;67555;47.660;19.622;2023-07-02T13:38:05;0.57;;;0.50;;
78296;SDS011;67555;47.660;19.622;2023-07-02T13:40:30;0.50;;;0.47;;
78296;SDS011;67555;47.660;19.622;2023-07-02T13:42:56;0.43;;;0.43;;
78296;SDS011;67555;47.660;19.622;2023-07-02T13:45:22;0.30;;;0.30;;
78296;SDS011;67555;47.660;19.622;2023-07-02T13:47:48;0.38;;;0.38;;
78296;SDS011;67555;47.660;19.622;2023-07-02T13:50:14;1.00;;;0.57;;
78296;SDS011;67555;47.660;19.622;2023-07-02T13:52:40;0.40;;;0.40;;
78296;SDS011;67555;47.660;19.622;2023-07-02T13:55:07;0.32;;;0.32;;
78296;SDS011;67555;47.660;19.622;2023-07-02T13:57:33;0.20;;;0.20;;
78296;SDS011;67555;47.660;19.622;2023-07-02T13:59:58;0.22;;;0.22;;
78296;SDS011;67555;47.660;19.622;2023-07-02T14:02:24;0.17;;;0.17;;
78296;SDS011;67555;47.660;19.622;2023-07-02T14:04:50;0.40;;;0.40;;
78296;SDS011;67555;47.660;19.622;2023-07-02T14:07:16;0.40;;;0.40;;
78296;SDS011;67555;47.660;19.622;2023-07-02T14:09:43;0.50;;;0.50;;
78296;SDS011;67555;47.660;19.622;2023-07-02T14:12:09;0.30;;;0.30;;
78296;SDS011;67555;47.660;19.622;2023-07-02T14:14:35;0.35;;;0.28;;
78296;SDS011;67555;47.660;19.622;2023-07-02T14:17:01;0.20;;;0.20;;
78296;SDS011;67555;47.660;19.622;2023-07-02T14:19:28;0.35;;;0.35;;
78296;SDS011;67555;47.660;19.622;2023-07-02T14:21:58;0.28;;;0.28;;
78296;SDS011;67555;47.660;19.622;2023-07-02T14:24:24;0.60;;;0.60;;
78296;SDS011;67555;47.660;19.622;2023-07-02T14:26:51;0.10;;;0.10;;
78296;SDS011;67555;47.660;19.622;2023-07-02T14:29:17;0.38;;;0.38;;
78296;SDS011;67555;47.660;19.622;2023-07-02T14:31:43;0.47;;;0.35;;
78296;SDS011;67555;47.660;19.622;2023-07-02T14:34:08;0.38;;;0.38;;
78296;SDS011;67555;47.660;19.622;2023-07-02T14:36:37;0.30;;;0.30;;
78296;SDS011;67555;47.660;19.622;2023-07-02T14:39:03;0.40;;;0.40;;
78296;SDS011;67555;47.660;19.622;2023-07-02T14:41:29;0.28;;;0.28;;
78296;SDS011;67555;47.660;19.622;2023-07-02T14:44:00;0.15;;;0.15;;
78296;SDS011;67555;47.660;19.622;2023-07-02T14:46:27;0.20;;;0.20;;
78296;SDS011;67555;47.660;19.622;2023-07-02T14:48:54;0.40;;;0.40;;